createdAt,value
2022-11-25T00:00:02.000Z,96.11
2022-11-25T00:01:02.000Z,96.11
2022-11-25T00:02:02.000Z,96.11
2022-11-25T00:03:02.000Z,96.01
2022-11-25T00:04:02.000Z,96.01
2022-11-25T00:05:02.000Z,96.11
2022-11-25T00:06:02.000Z,96.15
2022-11-25T00:07:02.000Z,96.15
2022-11-25T00:08:02.000Z,96.15
2022-11-25T00:09:02.000Z,96.15
2022-11-25T00:10:02.000Z,96.36
2022-11-25T00:11:02.000Z,96.56
2022-11-25T00:12:02.000Z,96.88
2022-11-25T00:13:02.000Z,96.88
2022-11-25T00:14:02.000Z,97.02
2022-11-25T00:15:02.000Z,97.02
2022-11-25T00:16:02.000Z,96.92
2022-11-25T00:17:01.000Z,97.02
2022-11-25T00:18:01.000Z,96.92
2022-11-25T00:19:01.000Z,96.92
2022-11-25T00:20:01.000Z,97.07
2022-11-25T00:21:01.000Z,97.17
2022-11-25T00:22:01.000Z,97.28
2022-11-25T00:23:01.000Z,97.59
2022-11-25T00:24:01.000Z,97.59
2022-11-25T00:25:01.000Z,97.79
2022-11-25T00:26:01.000Z,97.89
2022-11-25T00:27:01.000Z,97.89
2022-11-25T00:28:01.000Z,97.89
2022-11-25T01:01:46.000Z,99.37
2022-11-25T01:01:46.000Z,99.16
2022-11-25T01:02:46.000Z,99.57
2022-11-25T01:03:46.000Z,99.68
2022-11-25T01:04:46.000Z,99.72
2022-11-25T01:05:46.000Z,99.72
2022-11-25T01:06:46.000Z,99.93
2022-11-25T01:07:46.000Z,99.99
2022-11-25T01:08:46.000Z,99.99
2022-11-25T01:09:46.000Z,99.99
2022-11-25T01:10:46.000Z,99.93
2022-11-25T01:11:46.000Z,99.93
2022-11-25T01:12:46.000Z,99.82
2022-11-25T01:13:46.000Z,99.82
2022-11-25T01:14:46.000Z,99.77
2022-11-25T01:15:46.000Z,99.77
2022-11-25T01:16:46.000Z,99.66
2022-11-25T01:17:46.000Z,99.66
2022-11-25T01:18:46.000Z,99.56
2022-11-25T01:19:46.000Z,99.56
2022-11-25T01:20:46.000Z,99.66
2022-11-25T01:21:46.000Z,99.66
2022-11-25T01:22:46.000Z,99.87
2022-11-25T01:23:46.000Z,99.99
2022-11-25T01:24:46.000Z,99.99
2022-11-25T01:25:46.000Z,99.99
2022-11-25T01:26:46.000Z,99.99
2022-11-25T01:27:46.000Z,99.99
2022-11-25T01:28:46.000Z,99.99
2022-11-25T01:29:46.000Z,99.99
2022-11-25T01:30:46.000Z,99.99
2022-11-25T01:31:46.000Z,99.99
2022-11-25T01:32:46.000Z,99.99
2022-11-25T01:33:46.000Z,99.99
2022-11-25T01:34:46.000Z,99.99
2022-11-25T01:37:03.000Z,99.99
2022-11-25T01:37:03.000Z,99.99
2022-11-25T01:38:03.000Z,99.99
2022-11-25T01:39:03.000Z,99.99
2022-11-25T01:40:03.000Z,99.99
2022-11-25T01:41:03.000Z,99.99
2022-11-25T01:42:03.000Z,99.99
2022-11-25T01:43:03.000Z,99.99
2022-11-25T01:44:03.000Z,99.99
2022-11-25T01:45:03.000Z,99.99
2022-11-25T02:02:55.000Z,99.99
2022-11-25T02:02:55.000Z,99.99
2022-11-25T02:03:55.000Z,99.99
2022-11-25T02:04:55.000Z,99.99
2022-11-25T02:05:55.000Z,99.99
2022-11-25T02:06:55.000Z,99.99
2022-11-25T02:07:55.000Z,99.99
2022-11-25T02:08:55.000Z,99.99
2022-11-25T02:09:55.000Z,99.99
2022-11-25T02:10:55.000Z,99.99
2022-11-25T02:18:13.000Z,99.99
2022-11-25T02:18:13.000Z,99.99
2022-11-25T02:19:13.000Z,99.99
2022-11-25T02:20:13.000Z,99.99
2022-11-25T02:21:13.000Z,99.99
2022-11-25T02:39:06.000Z,99.99
2022-11-25T02:39:06.000Z,99.99
2022-11-25T02:40:06.000Z,99.99
2022-11-25T02:41:06.000Z,99.99
2022-11-25T02:42:06.000Z,99.99
2022-11-25T03:52:54.000Z,99.99
2022-11-25T03:52:54.000Z,99.99
2022-11-25T03:53:54.000Z,99.99
2022-11-25T03:54:54.000Z,99.99
2022-11-25T03:55:54.000Z,99.99
2022-11-25T03:56:54.000Z,99.99
2022-11-25T03:57:54.000Z,99.99
2022-11-25T03:58:54.000Z,99.99
2022-11-25T03:59:54.000Z,99.99
2022-11-25T04:00:54.000Z,99.99
2022-11-25T04:01:54.000Z,99.99
2022-11-25T04:02:54.000Z,99.99
2022-11-25T04:03:54.000Z,99.99
2022-11-25T04:04:54.000Z,99.99
2022-11-25T04:05:54.000Z,99.99
2022-11-25T04:06:54.000Z,99.99
2022-11-25T04:07:54.000Z,99.99
2022-11-25T04:08:54.000Z,99.99
2022-11-25T04:09:54.000Z,99.99
2022-11-25T04:10:54.000Z,99.99
2022-11-25T04:18:11.000Z,99.99
2022-11-25T04:18:11.000Z,99.99
2022-11-25T04:19:11.000Z,99.99
2022-11-25T04:20:11.000Z,99.99
2022-11-25T04:21:11.000Z,99.99
2022-11-25T04:28:29.000Z,99.99
2022-11-25T04:28:29.000Z,99.99
2022-11-25T04:29:29.000Z,99.99
2022-11-25T04:30:29.000Z,99.99
2022-11-25T04:31:29.000Z,99.99
2022-11-25T04:32:29.000Z,99.99
2022-11-25T04:33:29.000Z,99.99
2022-11-25T04:34:29.000Z,99.99
2022-11-25T04:35:29.000Z,99.99
2022-11-25T04:36:29.000Z,99.99
2022-11-25T04:37:29.000Z,99.99
2022-11-25T04:38:29.000Z,99.99
2022-11-25T04:39:29.000Z,99.99
2022-11-25T04:40:29.000Z,99.99
2022-11-25T04:41:29.000Z,99.99
2022-11-25T04:42:29.000Z,99.99
2022-11-25T04:43:28.000Z,99.99
2022-11-25T04:44:28.000Z,99.99
2022-11-25T04:45:28.000Z,99.99
2022-11-25T04:46:28.000Z,99.99
2022-11-25T04:53:46.000Z,99.99
2022-11-25T04:53:46.000Z,99.99
2022-11-25T04:54:46.000Z,99.99
2022-11-25T04:55:46.000Z,99.99
2022-11-25T04:56:46.000Z,99.99
2022-11-25T05:14:39.000Z,99.99
2022-11-25T05:14:39.000Z,99.99
2022-11-25T05:15:39.000Z,99.99
2022-11-25T05:16:39.000Z,99.99
2022-11-25T05:17:39.000Z,99.99
2022-11-25T05:18:39.000Z,99.99
2022-11-25T05:19:39.000Z,99.99
2022-11-25T05:20:39.000Z,99.99
2022-11-25T05:21:39.000Z,99.99
2022-11-25T05:22:39.000Z,99.99
2022-11-25T05:23:39.000Z,99.99
2022-11-25T05:24:39.000Z,99.99
2022-11-25T05:25:39.000Z,99.99
2022-11-25T05:26:39.000Z,99.99
2022-11-25T05:27:39.000Z,99.99
2022-11-25T05:28:39.000Z,99.99
2022-11-25T05:29:39.000Z,99.99
2022-11-25T05:30:39.000Z,99.99
2022-11-25T05:31:39.000Z,99.99
2022-11-25T05:32:39.000Z,99.99
2022-11-25T05:33:39.000Z,99.99
2022-11-25T05:34:39.000Z,99.99
2022-11-25T05:35:39.000Z,99.99
2022-11-25T05:36:39.000Z,99.99
2022-11-25T05:37:39.000Z,99.99
2022-11-25T05:38:39.000Z,99.99
2022-11-25T05:39:39.000Z,99.99
2022-11-25T05:40:39.000Z,99.99
2022-11-25T05:41:39.000Z,99.99
2022-11-25T05:42:39.000Z,99.99
2022-11-25T05:43:39.000Z,99.99
2022-11-25T05:44:39.000Z,99.99
2022-11-25T05:45:39.000Z,99.99
2022-11-25T05:46:39.000Z,99.99
2022-11-25T05:47:39.000Z,99.99
2022-11-25T05:48:39.000Z,99.99
2022-11-25T05:49:39.000Z,99.99
2022-11-25T05:50:39.000Z,99.99
2022-11-25T05:51:39.000Z,99.99
2022-11-25T05:52:39.000Z,99.99
2022-11-25T05:53:39.000Z,99.99
2022-11-25T05:54:39.000Z,99.99
2022-11-25T05:55:39.000Z,99.99
2022-11-25T05:56:39.000Z,99.99
2022-11-25T05:57:39.000Z,99.99
2022-11-25T05:58:39.000Z,99.99
2022-11-25T05:59:39.000Z,99.99
2022-11-25T06:00:39.000Z,99.99
2022-11-25T06:01:39.000Z,99.99
2022-11-25T06:02:39.000Z,99.99
2022-11-25T06:03:39.000Z,99.99
2022-11-25T06:04:39.000Z,99.99
2022-11-25T06:05:39.000Z,99.99
2022-11-25T06:06:39.000Z,99.99
2022-11-25T06:07:39.000Z,99.99
2022-11-25T06:08:39.000Z,99.99
2022-11-25T06:09:39.000Z,99.99
2022-11-25T06:10:39.000Z,99.99
2022-11-25T06:11:39.000Z,99.99
2022-11-25T06:12:38.000Z,99.99
2022-11-25T06:13:38.000Z,99.99
2022-11-25T06:14:38.000Z,99.99
2022-11-25T06:15:38.000Z,99.99
2022-11-25T06:16:38.000Z,99.99
2022-11-25T06:17:38.000Z,99.99
2022-11-25T06:18:38.000Z,99.99
2022-11-25T06:19:38.000Z,99.99
2022-11-25T06:20:38.000Z,99.99
2022-11-25T06:21:38.000Z,99.99
2022-11-25T06:22:38.000Z,99.99
2022-11-25T06:23:38.000Z,99.99
2022-11-25T06:24:38.000Z,99.99
2022-11-25T06:25:38.000Z,99.99
2022-11-25T06:26:38.000Z,99.99
2022-11-25T06:27:38.000Z,99.99
2022-11-25T06:28:38.000Z,99.99
2022-11-25T06:29:38.000Z,99.99
2022-11-25T06:30:38.000Z,99.99
2022-11-25T06:31:38.000Z,99.99
2022-11-25T06:32:38.000Z,99.99
2022-11-25T06:33:38.000Z,99.99
2022-11-25T06:34:38.000Z,99.99
2022-11-25T06:35:38.000Z,99.99
2022-11-25T06:36:38.000Z,99.99
2022-11-25T06:37:38.000Z,99.99
2022-11-25T06:38:38.000Z,99.99
2022-11-25T06:39:38.000Z,99.99
2022-11-25T06:40:38.000Z,99.99
2022-11-25T06:41:38.000Z,99.99
2022-11-25T06:42:38.000Z,99.99
2022-11-25T06:43:38.000Z,99.99
2022-11-25T06:44:38.000Z,99.99
2022-11-25T06:45:38.000Z,99.99
2022-11-25T06:46:38.000Z,99.99
2022-11-25T06:47:38.000Z,99.99
2022-11-25T06:48:38.000Z,99.99
2022-11-25T06:49:38.000Z,99.99
2022-11-25T06:50:38.000Z,99.99
2022-11-25T06:51:38.000Z,99.99
2022-11-25T06:52:38.000Z,99.99
2022-11-25T06:53:38.000Z,99.99
2022-11-25T06:54:38.000Z,99.99
2022-11-25T06:55:38.000Z,99.99
2022-11-25T06:56:38.000Z,99.99
2022-11-25T06:57:38.000Z,99.99
2022-11-25T06:58:38.000Z,99.99
2022-11-25T06:59:38.000Z,99.99
2022-11-25T07:00:38.000Z,99.99
2022-11-25T07:01:38.000Z,99.99
2022-11-25T07:02:38.000Z,99.99
2022-11-25T07:03:38.000Z,99.99
2022-11-25T07:04:38.000Z,99.99
2022-11-25T07:05:38.000Z,99.99
2022-11-25T07:06:38.000Z,99.99
2022-11-25T07:07:38.000Z,99.99
2022-11-25T07:08:38.000Z,99.99
2022-11-25T07:09:38.000Z,99.99
2022-11-25T07:10:38.000Z,99.99
2022-11-25T07:11:38.000Z,99.99
2022-11-25T07:12:38.000Z,99.99
2022-11-25T07:13:38.000Z,99.99
2022-11-25T07:14:38.000Z,99.99
2022-11-25T07:15:38.000Z,99.99
2022-11-25T07:16:38.000Z,99.99
2022-11-25T07:17:38.000Z,99.99
2022-11-25T07:18:38.000Z,99.99
2022-11-25T07:19:38.000Z,99.99
2022-11-25T07:20:38.000Z,99.99
2022-11-25T07:21:38.000Z,99.99
2022-11-25T07:22:38.000Z,99.99
2022-11-25T07:23:38.000Z,99.99
2022-11-25T07:24:38.000Z,99.99
2022-11-25T07:25:38.000Z,99.99
2022-11-25T07:26:38.000Z,99.99
2022-11-25T07:27:38.000Z,99.99
2022-11-25T07:28:38.000Z,99.99
2022-11-25T07:29:38.000Z,99.99
2022-11-25T07:30:38.000Z,99.99
2022-11-25T07:31:38.000Z,99.99
2022-11-25T07:32:38.000Z,99.99
2022-11-25T07:33:38.000Z,99.99
2022-11-25T07:34:38.000Z,99.99
2022-11-25T07:35:38.000Z,99.99
2022-11-25T07:36:38.000Z,99.99
2022-11-25T07:37:38.000Z,99.99
2022-11-25T07:38:38.000Z,99.99
2022-11-25T07:39:38.000Z,99.99
2022-11-25T07:40:38.000Z,99.99
2022-11-25T07:41:38.000Z,99.99
2022-11-25T07:42:38.000Z,99.99
2022-11-25T07:43:38.000Z,99.99
2022-11-25T07:44:38.000Z,99.99
2022-11-25T07:45:38.000Z,99.99
2022-11-25T07:46:38.000Z,99.99
2022-11-25T07:47:38.000Z,99.99
2022-11-25T07:48:38.000Z,99.99
2022-11-25T07:49:38.000Z,99.99
2022-11-25T07:50:38.000Z,99.99
2022-11-25T07:51:37.000Z,99.99
2022-11-25T07:52:37.000Z,99.99
2022-11-25T07:53:37.000Z,99.99
2022-11-25T07:54:37.000Z,99.99
2022-11-25T07:55:37.000Z,99.99
2022-11-25T07:56:37.000Z,99.99
2022-11-25T07:57:37.000Z,99.99
2022-11-25T07:58:37.000Z,99.99
2022-11-25T07:59:37.000Z,99.99
2022-11-25T08:00:37.000Z,99.96
2022-11-25T08:01:37.000Z,99.55
2022-11-25T08:02:37.000Z,99.61
2022-11-25T08:03:37.000Z,99.51
2022-11-25T08:04:37.000Z,99.25
2022-11-25T08:05:37.000Z,98.94
2022-11-25T08:06:37.000Z,98.53
2022-11-25T08:07:37.000Z,98.01
2022-11-25T08:08:37.000Z,97.50
2022-11-25T08:09:37.000Z,96.98
2022-11-25T08:10:37.000Z,96.56
2022-11-25T08:11:37.000Z,96.47
2022-11-25T08:12:37.000Z,95.84
2022-11-25T08:13:37.000Z,95.53
2022-11-25T08:14:37.000Z,95.64
2022-11-25T08:15:37.000Z,95.64
2022-11-25T08:16:37.000Z,94.92
2022-11-25T08:17:37.000Z,95.12
2022-11-25T08:18:37.000Z,95.27
2022-11-25T08:19:37.000Z,95.37
2022-11-25T08:20:37.000Z,95.53
2022-11-25T08:21:37.000Z,95.68
2022-11-25T08:22:37.000Z,95.84
2022-11-25T08:23:37.000Z,95.64
2022-11-25T08:24:37.000Z,95.74
2022-11-25T08:25:37.000Z,95.12
2022-11-25T08:26:37.000Z,94.92
2022-11-25T08:27:37.000Z,95.22
2022-11-25T08:28:37.000Z,95.64
2022-11-25T08:29:37.000Z,95.84
2022-11-25T08:30:37.000Z,95.70
2022-11-25T08:31:37.000Z,95.39
2022-11-25T08:32:37.000Z,94.72
2022-11-25T08:33:37.000Z,94.52
2022-11-25T08:34:37.000Z,94.62
2022-11-25T08:35:37.000Z,94.47
2022-11-25T08:36:37.000Z,94.37
2022-11-25T08:37:37.000Z,93.34
2022-11-25T08:38:37.000Z,93.13
2022-11-25T08:39:37.000Z,93.34
2022-11-25T08:40:37.000Z,93.50
2022-11-25T08:41:37.000Z,93.60
2022-11-25T08:42:37.000Z,93.09
2022-11-25T08:43:37.000Z,93.30
2022-11-25T08:44:37.000Z,93.30
2022-11-25T08:45:37.000Z,92.57
2022-11-25T08:46:37.000Z,91.34
2022-11-25T08:47:37.000Z,91.64
2022-11-25T08:48:37.000Z,92.37
2022-11-25T08:49:37.000Z,92.27
2022-11-25T08:50:37.000Z,92.22
2022-11-25T08:51:37.000Z,91.09
2022-11-25T08:52:37.000Z,91.03
2022-11-25T08:53:37.000Z,91.71
2022-11-25T08:54:37.000Z,91.91
2022-11-25T08:55:37.000Z,91.97
2022-11-25T08:56:37.000Z,91.77
2022-11-25T08:57:37.000Z,91.25
2022-11-25T08:58:37.000Z,91.00
2022-11-25T08:59:37.000Z,90.69
2022-11-25T09:00:37.000Z,91.06
2022-11-25T09:01:37.000Z,91.06
2022-11-25T09:02:37.000Z,91.53
2022-11-25T09:03:37.000Z,91.02
2022-11-25T09:04:37.000Z,90.72
2022-11-25T09:05:37.000Z,90.57
2022-11-25T09:06:37.000Z,90.78
2022-11-25T09:07:37.000Z,90.16
2022-11-25T09:08:37.000Z,89.54
2022-11-25T09:09:37.000Z,89.54
2022-11-25T09:10:37.000Z,88.98
2022-11-25T09:11:37.000Z,88.37
2022-11-25T09:12:37.000Z,87.85
2022-11-25T09:13:37.000Z,87.34
2022-11-25T09:14:37.000Z,87.96
2022-11-25T09:15:37.000Z,87.13
2022-11-25T09:16:37.000Z,86.99
2022-11-25T09:17:37.000Z,85.97
2022-11-25T09:18:37.000Z,86.38
2022-11-25T09:19:37.000Z,86.33
2022-11-25T09:20:37.000Z,86.13
2022-11-25T09:21:37.000Z,84.69
2022-11-25T09:22:37.000Z,83.46
2022-11-25T09:23:37.000Z,84.04
2022-11-25T09:24:37.000Z,84.66
2022-11-25T09:25:37.000Z,83.49
2022-11-25T09:26:36.000Z,84.52
2022-11-25T09:27:36.000Z,83.18
2022-11-25T09:28:36.000Z,83.25
2022-11-25T09:29:36.000Z,82.42
2022-11-25T09:30:36.000Z,82.73
2022-11-25T09:31:36.000Z,82.69
2022-11-25T09:32:36.000Z,82.90
2022-11-25T09:33:36.000Z,83.00
2022-11-25T09:34:36.000Z,83.00
2022-11-25T09:35:36.000Z,81.67
2022-11-25T09:36:36.000Z,83.10
2022-11-25T09:37:36.000Z,83.92
2022-11-25T09:38:36.000Z,83.37
2022-11-25T09:39:36.000Z,82.04
2022-11-25T09:40:36.000Z,81.84
2022-11-25T09:41:36.000Z,80.91
2022-11-25T09:42:36.000Z,81.38
2022-11-25T09:43:36.000Z,80.57
2022-11-25T09:44:36.000Z,79.07
2022-11-25T09:45:36.000Z,80.16
2022-11-25T09:46:36.000Z,81.08
2022-11-25T09:47:36.000Z,80.67
2022-11-25T09:48:36.000Z,81.08
2022-11-25T09:49:36.000Z,81.49
2022-11-25T09:50:36.000Z,82.21
2022-11-25T09:51:36.000Z,80.22
2022-11-25T09:52:36.000Z,79.71
2022-11-25T09:53:36.000Z,79.61
2022-11-25T09:54:36.000Z,77.01
2022-11-25T09:55:36.000Z,77.01
2022-11-25T09:56:36.000Z,76.30
2022-11-25T09:57:36.000Z,77.83
2022-11-25T09:58:36.000Z,76.78
2022-11-25T09:59:36.000Z,77.08
2022-11-25T10:00:36.000Z,75.41
2022-11-25T10:01:36.000Z,74.80
2022-11-25T10:02:36.000Z,74.56
2022-11-25T10:03:36.000Z,75.17
2022-11-25T10:04:36.000Z,74.66
2022-11-25T10:05:36.000Z,76.26
2022-11-25T10:06:36.000Z,74.93
2022-11-25T10:07:36.000Z,73.91
2022-11-25T10:08:36.000Z,74.18
2022-11-25T10:09:36.000Z,72.86
2022-11-25T10:10:36.000Z,73.74
2022-11-25T10:11:36.000Z,72.69
2022-11-25T10:12:36.000Z,71.46
2022-11-25T10:13:36.000Z,72.17
2022-11-25T10:14:36.000Z,71.12
2022-11-25T10:15:36.000Z,70.38
2022-11-25T10:16:36.000Z,70.99
2022-11-25T10:17:36.000Z,68.62
2022-11-25T10:18:36.000Z,68.01
2022-11-25T10:19:36.000Z,69.23
2022-11-25T10:20:36.000Z,68.82
2022-11-25T10:21:36.000Z,68.10
2022-11-25T10:22:36.000Z,68.18
2022-11-25T10:23:36.000Z,68.58
2022-11-25T10:24:36.000Z,68.58
2022-11-25T10:25:36.000Z,66.31
2022-11-25T10:26:36.000Z,68.65
2022-11-25T10:27:36.000Z,67.83
2022-11-25T10:28:43.000Z,67.77
2022-11-25T10:29:36.000Z,67.13
2022-11-25T10:30:36.000Z,68.35
2022-11-25T10:31:36.000Z,67.43
2022-11-25T10:32:36.000Z,67.33
2022-11-25T10:33:36.000Z,65.70
2022-11-25T10:34:36.000Z,68.41
2022-11-25T10:35:36.000Z,65.88
2022-11-25T10:36:36.000Z,67.10
2022-11-25T10:37:36.000Z,67.50
2022-11-25T10:38:36.000Z,68.32
2022-11-25T10:39:36.000Z,67.74
2022-11-25T10:40:36.000Z,67.94
2022-11-25T10:41:36.000Z,68.68
2022-11-25T10:42:36.000Z,67.26
2022-11-25T10:43:36.000Z,69.60
2022-11-25T10:44:36.000Z,69.40
2022-11-25T10:45:36.000Z,69.02
2022-11-25T10:46:36.000Z,69.43
2022-11-25T10:47:36.000Z,69.53
2022-11-25T10:48:36.000Z,69.67
2022-11-25T10:49:36.000Z,69.87
2022-11-25T10:50:36.000Z,68.65
2022-11-25T10:51:36.000Z,69.02
2022-11-25T10:52:36.000Z,68.34
2022-11-25T10:53:36.000Z,68.34
2022-11-25T10:54:36.000Z,69.56
2022-11-25T10:55:36.000Z,70.07
2022-11-25T10:56:36.000Z,70.89
2022-11-25T10:57:36.000Z,69.67
2022-11-25T10:58:36.000Z,68.68
2022-11-25T10:59:36.000Z,69.09
2022-11-25T11:00:36.000Z,70.10
2022-11-25T11:01:35.000Z,71.94
2022-11-25T11:02:35.000Z,70.65
2022-11-25T11:03:35.000Z,69.83
2022-11-25T11:04:35.000Z,70.14
2022-11-25T11:05:35.000Z,71.26
2022-11-25T11:06:35.000Z,72.38
2022-11-25T11:07:35.000Z,70.48
2022-11-25T11:08:35.000Z,70.27
2022-11-25T11:09:35.000Z,71.39
2022-11-25T11:10:35.000Z,71.43
2022-11-25T11:11:35.000Z,72.34
2022-11-25T11:12:35.000Z,72.48
2022-11-25T11:13:35.000Z,72.38
2022-11-25T11:14:35.000Z,73.81
2022-11-25T11:15:35.000Z,73.30
2022-11-25T11:16:35.000Z,73.64
2022-11-25T11:17:35.000Z,72.82
2022-11-25T11:18:35.000Z,73.44
2022-11-25T11:19:35.000Z,74.35
2022-11-25T11:20:35.000Z,73.16
2022-11-25T11:21:35.000Z,74.80
2022-11-25T11:22:35.000Z,74.69
2022-11-25T11:23:35.000Z,75.51
2022-11-25T11:24:35.000Z,75.71
2022-11-25T11:25:35.000Z,75.41
2022-11-25T11:26:35.000Z,75.62
2022-11-25T11:27:35.000Z,74.80
2022-11-25T11:28:35.000Z,75.82
2022-11-25T11:29:35.000Z,76.33
2022-11-25T11:30:35.000Z,75.82
2022-11-25T11:31:35.000Z,76.33
2022-11-25T11:32:35.000Z,75.99
2022-11-25T11:33:35.000Z,75.92
2022-11-25T11:34:35.000Z,76.12
2022-11-25T11:35:35.000Z,76.64
2022-11-25T11:36:35.000Z,76.50
2022-11-25T11:37:35.000Z,76.09
2022-11-25T11:38:35.000Z,76.40
2022-11-25T11:39:35.000Z,76.97
2022-11-25T11:40:35.000Z,77.69
2022-11-25T11:41:35.000Z,77.25
2022-11-25T11:42:35.000Z,76.02
2022-11-25T11:43:35.000Z,75.88
2022-11-25T11:44:35.000Z,76.29
2022-11-25T11:45:35.000Z,75.13
2022-11-25T11:46:35.000Z,72.48
2022-11-25T11:47:35.000Z,72.55
2022-11-25T11:48:35.000Z,73.26
2022-11-25T11:49:35.000Z,73.67
2022-11-25T11:50:35.000Z,73.36
2022-11-25T11:51:35.000Z,72.75
2022-11-25T11:52:35.000Z,71.63
2022-11-25T11:53:35.000Z,70.92
2022-11-25T11:54:35.000Z,71.43
2022-11-25T11:55:35.000Z,70.65
2022-11-25T11:56:35.000Z,71.77
2022-11-25T11:57:35.000Z,73.19
2022-11-25T11:58:35.000Z,72.58
2022-11-25T11:59:35.000Z,71.97
2022-11-25T12:00:35.000Z,72.52
2022-11-25T12:01:35.000Z,73.54
2022-11-25T12:02:35.000Z,74.05
2022-11-25T12:03:35.000Z,73.64
2022-11-25T12:04:35.000Z,72.82
2022-11-25T12:05:35.000Z,74.25
2022-11-25T12:06:35.000Z,72.55
2022-11-25T12:07:35.000Z,73.16
2022-11-25T12:08:35.000Z,73.77
2022-11-25T12:09:35.000Z,74.59
2022-11-25T12:10:35.000Z,75.41
2022-11-25T12:11:35.000Z,75.00
2022-11-25T12:12:35.000Z,75.10
2022-11-25T12:13:35.000Z,73.98
2022-11-25T12:14:35.000Z,74.29
2022-11-25T12:15:35.000Z,75.10
2022-11-25T12:16:35.000Z,73.27
2022-11-25T12:17:35.000Z,74.59
2022-11-25T12:18:35.000Z,71.97
2022-11-25T12:19:35.000Z,72.45
2022-11-25T12:20:35.000Z,72.96
2022-11-25T12:21:35.000Z,73.98
2022-11-25T12:22:35.000Z,73.36
2022-11-25T12:23:35.000Z,72.96
2022-11-25T12:24:35.000Z,73.81
2022-11-25T12:25:35.000Z,74.11
2022-11-25T12:26:35.000Z,74.79
2022-11-25T12:27:35.000Z,75.31
2022-11-25T12:28:35.000Z,75.71
2022-11-25T12:29:35.000Z,72.96
2022-11-25T12:30:35.000Z,72.75
2022-11-25T12:31:35.000Z,72.79
2022-11-25T12:32:35.000Z,72.38
2022-11-25T12:33:35.000Z,72.38
2022-11-25T12:34:35.000Z,73.23
2022-11-25T12:35:34.000Z,74.35
2022-11-25T12:36:34.000Z,73.74
2022-11-25T12:37:34.000Z,73.54
2022-11-25T12:38:34.000Z,74.05
2022-11-25T12:39:34.000Z,74.66
2022-11-25T12:40:34.000Z,73.74
2022-11-25T12:41:34.000Z,74.69
2022-11-25T12:42:34.000Z,74.39
2022-11-25T12:43:34.000Z,75.51
2022-11-25T12:44:34.000Z,75.10
2022-11-25T12:45:34.000Z,75.10
2022-11-25T12:46:34.000Z,75.00
2022-11-25T12:47:34.000Z,75.00
2022-11-25T12:48:34.000Z,74.80
2022-11-25T12:49:34.000Z,75.41
2022-11-25T12:50:34.000Z,75.51
2022-11-25T12:51:34.000Z,75.51
2022-11-25T12:52:34.000Z,75.00
2022-11-25T12:53:34.000Z,75.51
2022-11-25T12:54:34.000Z,75.92
2022-11-25T12:55:34.000Z,76.53
2022-11-25T12:56:34.000Z,75.82
2022-11-25T12:57:34.000Z,76.03
2022-11-25T12:58:34.000Z,75.51
2022-11-25T12:59:34.000Z,76.03
2022-11-25T13:00:34.000Z,76.64
2022-11-25T13:01:34.000Z,75.00
2022-11-25T13:02:34.000Z,75.41
2022-11-25T13:03:34.000Z,76.23
2022-11-25T13:04:34.000Z,76.43
2022-11-25T13:05:34.000Z,75.71
2022-11-25T13:06:34.000Z,75.71
2022-11-25T13:07:34.000Z,75.00
2022-11-25T13:08:34.000Z,76.12
2022-11-25T13:09:34.000Z,76.03
2022-11-25T13:10:34.000Z,75.31
2022-11-25T13:11:34.000Z,76.43
2022-11-25T13:12:34.000Z,76.03
2022-11-25T13:13:34.000Z,75.10
2022-11-25T13:14:34.000Z,76.03
2022-11-25T13:15:34.000Z,75.51
2022-11-25T13:16:34.000Z,76.23
2022-11-25T13:17:34.000Z,77.15
2022-11-25T13:18:34.000Z,75.00
2022-11-25T13:18:34.000Z,75.00
2022-11-25T13:19:34.000Z,75.21
2022-11-25T13:19:34.000Z,75.21
2022-11-25T13:20:34.000Z,75.92
2022-11-25T13:20:34.000Z,75.92
2022-11-25T13:21:34.000Z,76.16
2022-11-25T13:21:34.000Z,76.16
2022-11-25T13:22:34.000Z,75.75
2022-11-25T13:22:34.000Z,75.75
2022-11-25T13:23:34.000Z,75.55
2022-11-25T13:24:34.000Z,75.79
2022-11-25T13:25:34.000Z,75.79
2022-11-25T13:26:34.000Z,76.61
2022-11-25T13:27:34.000Z,77.12
2022-11-25T13:28:34.000Z,76.81
2022-11-25T13:29:34.000Z,76.40
2022-11-25T13:30:34.000Z,77.53
2022-11-25T13:31:34.000Z,77.12
2022-11-25T13:32:34.000Z,77.87
2022-11-25T13:33:34.000Z,77.67
2022-11-25T13:34:34.000Z,77.76
2022-11-25T13:35:34.000Z,76.84
2022-11-25T13:36:34.000Z,77.87
2022-11-25T13:37:34.000Z,77.87
2022-11-25T13:38:34.000Z,78.63
2022-11-25T13:39:34.000Z,77.70
2022-11-25T13:40:34.000Z,77.60
2022-11-25T13:41:34.000Z,77.80
2022-11-25T13:42:34.000Z,79.03
2022-11-25T13:43:34.000Z,79.44
2022-11-25T13:44:34.000Z,79.89
2022-11-25T13:45:34.000Z,81.01
2022-11-25T13:46:34.000Z,81.12
2022-11-25T13:47:34.000Z,80.51
2022-11-25T13:48:34.000Z,81.01
2022-11-25T13:49:34.000Z,83.17
2022-11-25T13:50:34.000Z,85.25
2022-11-25T13:51:34.000Z,86.69
2022-11-25T13:52:34.000Z,86.99
2022-11-25T13:53:34.000Z,87.96
2022-11-25T13:54:34.000Z,87.85
2022-11-25T13:55:34.000Z,88.27
2022-11-25T13:56:34.000Z,88.21
2022-11-25T13:57:34.000Z,89.23
2022-11-25T13:58:34.000Z,90.36
2022-11-25T13:59:34.000Z,91.22
2022-11-25T14:00:34.000Z,91.94
2022-11-25T14:01:34.000Z,90.71
2022-11-25T14:02:34.000Z,90.71
2022-11-25T14:03:34.000Z,91.06
2022-11-25T14:04:34.000Z,91.67
2022-11-25T14:05:34.000Z,91.78
2022-11-25T14:06:34.000Z,92.08
2022-11-25T14:07:34.000Z,92.50
2022-11-25T14:08:34.000Z,92.70
2022-11-25T14:09:33.000Z,93.42
2022-11-25T14:10:33.000Z,93.26
2022-11-25T14:11:33.000Z,93.67
2022-11-25T14:12:33.000Z,93.87
2022-11-25T14:13:33.000Z,94.18
2022-11-25T14:13:33.000Z,94.18
2022-11-25T14:14:33.000Z,94.49
2022-11-25T14:14:33.000Z,94.49
2022-11-25T14:15:33.000Z,94.80
2022-11-25T14:15:33.000Z,94.80
2022-11-25T14:16:33.000Z,95.01
2022-11-25T14:16:33.000Z,95.01
2022-11-25T14:17:33.000Z,95.36
2022-11-25T14:17:33.000Z,95.36
2022-11-25T14:18:33.000Z,95.67
2022-11-25T14:19:33.000Z,95.87
2022-11-25T14:20:33.000Z,96.28
2022-11-25T14:21:33.000Z,95.97
2022-11-25T14:22:33.000Z,95.87
2022-11-25T14:23:33.000Z,95.97
2022-11-25T14:24:33.000Z,96.08
2022-11-25T14:25:33.000Z,96.08
2022-11-25T14:26:33.000Z,96.22
2022-11-25T14:27:33.000Z,96.53
2022-11-25T14:28:33.000Z,96.64
2022-11-25T14:29:33.000Z,96.73
2022-11-25T14:30:33.000Z,97.05
2022-11-25T14:31:33.000Z,97.36
2022-11-25T14:32:33.000Z,97.56
2022-11-25T14:33:33.000Z,97.87
2022-11-25T14:34:33.000Z,98.07
2022-11-25T14:35:33.000Z,98.28
2022-11-25T14:36:33.000Z,98.38
2022-11-25T14:37:33.000Z,98.53
2022-11-25T14:38:33.000Z,98.33
2022-11-25T14:39:33.000Z,98.33
2022-11-25T14:40:33.000Z,98.53
2022-11-25T14:41:33.000Z,98.84
2022-11-25T14:42:33.000Z,99.15
2022-11-25T14:43:33.000Z,99.35
2022-11-25T14:44:33.000Z,99.35
2022-11-25T14:45:33.000Z,99.35
2022-11-25T14:46:33.000Z,99.56
2022-11-25T14:47:33.000Z,99.77
2022-11-25T14:48:33.000Z,99.97
2022-11-25T14:48:33.000Z,99.97
2022-11-25T14:49:33.000Z,99.99
2022-11-25T14:49:33.000Z,99.99
2022-11-25T14:50:33.000Z,99.99
2022-11-25T14:50:33.000Z,99.99
2022-11-25T14:51:33.000Z,99.99
2022-11-25T14:51:33.000Z,99.99
2022-11-25T14:52:33.000Z,99.99
2022-11-25T14:52:33.000Z,99.99
2022-11-25T14:53:33.000Z,99.99
2022-11-25T14:54:33.000Z,99.99
2022-11-25T14:55:33.000Z,99.99
2022-11-25T14:56:33.000Z,99.99
2022-11-25T14:57:33.000Z,99.99
2022-11-25T14:58:33.000Z,99.99
2022-11-25T14:59:33.000Z,99.99
2022-11-25T15:00:33.000Z,99.99
2022-11-25T15:01:33.000Z,99.99
2022-11-25T15:02:33.000Z,99.99
2022-11-25T15:03:33.000Z,99.99
2022-11-25T15:04:33.000Z,99.99
2022-11-25T15:05:33.000Z,99.99
2022-11-25T15:06:33.000Z,99.99
2022-11-25T15:07:33.000Z,99.99
2022-11-25T15:08:33.000Z,99.99
2022-11-25T15:09:33.000Z,99.99
2022-11-25T15:10:33.000Z,99.99
2022-11-25T15:11:33.000Z,99.99
2022-11-25T15:12:33.000Z,99.99
2022-11-25T15:13:33.000Z,99.99
2022-11-25T15:14:33.000Z,99.99
2022-11-25T15:15:33.000Z,99.99
2022-11-25T15:16:33.000Z,99.99
2022-11-25T15:17:33.000Z,99.99
2022-11-25T15:18:33.000Z,99.99
2022-11-25T15:19:33.000Z,99.99
2022-11-25T15:20:33.000Z,99.99
2022-11-25T15:21:33.000Z,99.99
2022-11-25T15:22:33.000Z,99.99
2022-11-25T15:23:33.000Z,99.99
2022-11-25T15:24:33.000Z,99.99
2022-11-25T15:25:33.000Z,99.99
2022-11-25T15:26:33.000Z,99.99